Cachoeira do Sul, Brazil
Current Conditions -  °F | °C
As of 6:00 PM on Wednesday 28 Jan 2015 (Local Time) from SBPA Reporting Station
Broken Clouds Broken Clouds  
Wind Chill: 81°   Ceiling: 10000
Heat Index: 86°   Visibility: 6mi
Dew Point: 75°   Wind: 6mph
Humidity: 84%   Direction: 360°N
Pressure: 29.71"   Gusts: NA
Location:  30.04°S, 52.89°W
Report Text: SBPA 282000Z 36005KT 280V040 9999 SCT040 FEW050TCU BKN100 27/24 Q1006 RETS
Loading
Personal Weather Stations






























Interactive Weather Map New forecast layout! Learn more

10-Day Weather Forecast

Advertisements
Track Severe Weather on mobile